Aviation Digital Data Service (ADDS)

Output produced by METARs form (0035 UTC 19 August 2019)
found at http://www.aviationweather.gov/metar/data/
 
Forecast for: FNHU (HUAMBO/NOVA LISB, AO)
Text: TAF FNHU 182300Z 1900/1912 14006KT CAVOK
Forecast period: 0000 to 1200 UTC 19 August 2019
Forecast type: FROM: standard forecast or significant change
Winds: from the SE (140 degrees) at 7 MPH (6 knots; 3.1 m/s)
Visibility: 6 or more miles 10+ km)
Ceiling: unknown
Clouds: missing
Weather: NSW  (no significant weather)
Text: TEMPO 1906/1910 09010KT
Forecast period: 0600 to 1000 UTC 19 August 2019
Forecast type: TEMPORARY: The following changes expected for less than half the time period
Winds: from the E (90 degrees) at 12 MPH (10 knots; 5.1 m/s)
Visibility: missing
Ceiling: unknown
Clouds: missing
Weather: no significant weather forecast for this period